Vananda, Canada
Current Conditions -  °F | °C
As of 11:30 AM on Monday 22 Dec 2014 (Local Time) from CYPW Reporting Station
Moderate Fog Moderate Fog  
Wind Chill: 39°   Ceiling: 400
Heat Index: 39°   Visibility: 0.5mi
Dew Point: 39°   Wind: 3mph
Humidity: 100%   Direction: 330°NNW
Pressure: 30.36"   Gusts: NA
Location:  49.76°N, 124.55°W
Report Text: CYPW 221930Z 33003KT 270V350 1/2SM FG OVC004 04/04 A3036 RMK FG4ST4 VIS W 6 SLP285
Loading
Personal Weather Stations






























Interactive Weather Map New forecast layout! Learn more

10-Day Weather Forecast

Advertisements
Track Severe Weather on mobile